Terminal Aerodrome Forecast
Issued by NWS

Home | Current Version | Previous Version | Text Only | Print | Product List | Glossary On
Versions: 1 2 3 4 5 6 7 8 9 10 11 12
000
FTUS43 KICT 041733
TAFCNU
TAF
KCNU 041733Z 0418/0518 17015KT P6SM SCT040
     FM050000 15008KT P6SM SCT200
     FM051600 17013KT P6SM SCT040=

USA.gov is the U.S. government's official web portal to all federal, state and local government web resources and services.